createdAt,value
2022-12-31T00:02:19.390Z,8.79
2022-12-31T00:04:45.945Z,8.73
2022-12-31T00:07:12.356Z,9.00
2022-12-31T00:09:38.921Z,8.66
2022-12-31T00:12:05.798Z,8.66
2022-12-31T00:14:32.314Z,8.76
2022-12-31T00:16:58.824Z,8.61
2022-12-31T00:19:25.355Z,8.62
2022-12-31T00:21:51.821Z,8.71
2022-12-31T00:24:18.327Z,8.50
2022-12-31T00:26:44.754Z,8.38
2022-12-31T00:29:11.339Z,8.47
2022-12-31T00:31:38.491Z,8.53
2022-12-31T00:34:05.949Z,8.67
2022-12-31T00:36:35.556Z,8.74
2022-12-31T00:39:04.686Z,8.54
2022-12-31T00:41:31.276Z,8.46
2022-12-31T00:43:58.100Z,8.24
2022-12-31T00:46:25.198Z,8.12
2022-12-31T00:48:52.073Z,8.42
2022-12-31T00:51:22.031Z,9.06
2022-12-31T00:53:48.848Z,8.54
2022-12-31T00:56:20.900Z,8.58
2022-12-31T00:58:48.192Z,8.36
2022-12-31T01:01:21.233Z,8.79
2022-12-31T01:03:49.757Z,8.60
2022-12-31T01:06:17.397Z,8.84
2022-12-31T01:08:44.565Z,9.07
2022-12-31T01:11:29.029Z,9.03
2022-12-31T01:13:59.786Z,8.94
2022-12-31T01:16:32.381Z,9.19
2022-12-31T01:19:01.315Z,9.27
2022-12-31T01:21:29.129Z,9.11
2022-12-31T01:23:55.798Z,8.85
2022-12-31T01:26:22.320Z,9.09
2022-12-31T01:28:48.846Z,8.99
2022-12-31T01:31:17.627Z,9.28
2022-12-31T01:33:44.912Z,9.71
2022-12-31T01:36:17.833Z,9.50
2022-12-31T01:38:48.602Z,9.54
2022-12-31T01:41:18.595Z,9.88
2022-12-31T01:44:00.125Z,9.53
2022-12-31T01:46:35.553Z,9.35
2022-12-31T01:49:31.618Z,9.06
2022-12-31T01:52:04.555Z,8.84
2022-12-31T01:54:36.696Z,8.94
2022-12-31T01:57:05.301Z,8.85
2022-12-31T01:59:33.677Z,8.62
2022-12-31T02:02:01.497Z,8.77
2022-12-31T02:04:29.180Z,8.66
2022-12-31T02:07:09.297Z,8.64
2022-12-31T02:09:40.401Z,8.86
2022-12-31T02:12:08.971Z,8.68
2022-12-31T02:14:40.448Z,8.82
2022-12-31T02:17:34.033Z,8.95
2022-12-31T02:20:22.168Z,9.10
2022-12-31T02:23:09.759Z,8.88
2022-12-31T02:26:00.535Z,8.71
2022-12-31T02:28:57.100Z,8.73
2022-12-31T02:31:32.441Z,8.61
2022-12-31T02:34:11.688Z,9.04
2022-12-31T02:36:42.661Z,8.91
2022-12-31T02:39:11.774Z,8.71
2022-12-31T02:41:50.095Z,8.65
2022-12-31T02:44:33.251Z,8.79
2022-12-31T02:47:08.844Z,8.70
2022-12-31T02:49:55.639Z,8.57
2022-12-31T02:52:31.572Z,8.67
2022-12-31T02:55:25.907Z,8.77
2022-12-31T02:58:13.786Z,8.67
2022-12-31T03:01:10.421Z,9.14
2022-12-31T03:03:38.225Z,9.12
2022-12-31T03:06:08.219Z,9.32
2022-12-31T03:08:54.856Z,9.05
2022-12-31T03:11:39.964Z,9.14
2022-12-31T03:14:06.475Z,9.25
2022-12-31T03:16:34.068Z,9.36
2022-12-31T03:19:19.013Z,9.53
2022-12-31T03:22:04.265Z,9.30
2022-12-31T03:24:49.425Z,9.28
2022-12-31T03:27:18.216Z,9.36
2022-12-31T03:29:45.401Z,9.15
2022-12-31T03:32:12.240Z,9.07
2022-12-31T03:34:38.788Z,8.88
2022-12-31T03:37:05.254Z,8.69
2022-12-31T03:39:31.790Z,8.62
2022-12-31T03:41:58.715Z,8.39
2022-12-31T03:44:25.167Z,8.32
2022-12-31T03:46:51.743Z,8.01
2022-12-31T03:49:18.197Z,8.39
2022-12-31T03:51:44.663Z,8.17
2022-12-31T03:54:11.134Z,8.28
2022-12-31T03:56:37.701Z,8.17
2022-12-31T03:59:04.236Z,8.09
2022-12-31T04:01:32.501Z,8.00
2022-12-31T04:03:59.179Z,8.09
2022-12-31T04:06:25.614Z,8.18
2022-12-31T04:08:52.140Z,8.06
2022-12-31T04:11:20.984Z,7.88
2022-12-31T04:13:47.702Z,7.75
2022-12-31T04:16:14.153Z,7.91
2022-12-31T04:18:40.669Z,7.96
2022-12-31T04:21:07.239Z,7.92
2022-12-31T04:23:33.745Z,7.92
2022-12-31T04:26:00.223Z,8.30
2022-12-31T04:28:26.867Z,8.06
2022-12-31T04:30:53.399Z,8.17
2022-12-31T04:33:19.824Z,8.40
2022-12-31T04:35:46.319Z,8.37
2022-12-31T04:38:12.787Z,8.29
2022-12-31T04:40:59.296Z,8.47
2022-12-31T04:43:25.805Z,8.23
2022-12-31T04:45:52.342Z,8.16
2022-12-31T04:48:18.953Z,8.03
2022-12-31T04:50:46.416Z,8.09
2022-12-31T04:53:13.088Z,8.20
2022-12-31T04:55:41.489Z,8.09
2022-12-31T04:58:08.115Z,8.11
2022-12-31T05:00:34.698Z,8.37
2022-12-31T05:03:01.203Z,8.50
2022-12-31T05:05:27.731Z,8.70
2022-12-31T05:07:54.277Z,8.50
2022-12-31T05:10:20.881Z,8.29
2022-12-31T05:12:47.386Z,8.71
2022-12-31T05:15:14.627Z,8.91
2022-12-31T05:17:44.041Z,8.90
2022-12-31T05:20:11.573Z,8.81
2022-12-31T05:22:38.094Z,9.02
2022-12-31T05:25:05.335Z,9.00
2022-12-31T05:27:32.010Z,8.78
2022-12-31T05:29:59.077Z,8.82
2022-12-31T05:32:25.962Z,8.87
2022-12-31T05:34:53.621Z,8.95
2022-12-31T05:37:20.143Z,8.92
2022-12-31T05:39:46.853Z,8.91
2022-12-31T05:42:13.306Z,9.00
2022-12-31T05:44:40.215Z,9.15
2022-12-31T05:47:07.087Z,8.99
2022-12-31T05:49:33.625Z,9.61
2022-12-31T05:52:00.410Z,9.51
2022-12-31T05:54:26.949Z,9.21
2022-12-31T05:56:53.350Z,9.24
2022-12-31T05:59:20.043Z,9.00
2022-12-31T06:01:47.851Z,8.78
2022-12-31T06:04:14.371Z,9.09
2022-12-31T06:06:40.805Z,8.91
2022-12-31T06:09:07.349Z,9.03
2022-12-31T06:11:33.772Z,8.97
2022-12-31T06:14:00.357Z,8.85
2022-12-31T06:16:27.240Z,8.91
2022-12-31T06:18:54.351Z,9.01
2022-12-31T06:21:21.687Z,9.18
2022-12-31T06:23:48.768Z,8.81
2022-12-31T06:26:16.352Z,9.20
2022-12-31T06:28:42.847Z,9.34
2022-12-31T06:31:11.634Z,9.09
2022-12-31T06:33:38.335Z,8.88
2022-12-31T06:36:08.017Z,8.63
2022-12-31T06:38:38.117Z,8.83
2022-12-31T06:41:06.089Z,8.82
2022-12-31T06:43:33.730Z,8.78
2022-12-31T06:46:02.081Z,8.67
2022-12-31T06:48:28.648Z,8.63
2022-12-31T06:50:55.077Z,8.65
2022-12-31T06:53:22.296Z,8.94
2022-12-31T06:55:49.530Z,8.92
2022-12-31T06:58:16.728Z,8.77
2022-12-31T07:00:56.051Z,8.63
2022-12-31T07:03:49.183Z,8.81
2022-12-31T07:06:19.916Z,8.69
2022-12-31T07:09:02.370Z,8.97
2022-12-31T07:11:56.477Z,9.23
2022-12-31T07:14:37.242Z,9.07
2022-12-31T07:17:25.003Z,8.94
2022-12-31T07:20:05.286Z,8.99
2022-12-31T07:22:32.131Z,9.04
2022-12-31T07:24:59.207Z,9.19
2022-12-31T07:27:45.483Z,9.01
2022-12-31T07:30:19.864Z,8.97
2022-12-31T07:33:17.129Z,9.00
2022-12-31T07:36:03.942Z,8.92
2022-12-31T07:39:01.486Z,9.33
2022-12-31T07:41:41.175Z,9.26
2022-12-31T07:44:47.970Z,9.14
2022-12-31T07:47:34.896Z,9.29
2022-12-31T07:50:02.499Z,9.11
2022-12-31T07:52:29.381Z,9.20
2022-12-31T07:54:55.838Z,9.14
2022-12-31T07:57:27.303Z,9.22
2022-12-31T08:00:08.081Z,9.27
2022-12-31T08:03:01.809Z,9.38
2022-12-31T08:05:34.289Z,9.70
2022-12-31T08:08:31.443Z,9.87
2022-12-31T08:11:18.661Z,9.87
2022-12-31T08:13:45.779Z,10.36
2022-12-31T08:16:13.447Z,10.17
2022-12-31T08:18:40.957Z,10.03
2022-12-31T08:21:14.237Z,10.37
2022-12-31T08:23:55.849Z,10.31
2022-12-31T08:26:40.883Z,10.36
2022-12-31T08:29:29.141Z,10.55
2022-12-31T08:32:18.319Z,10.23
2022-12-31T08:34:58.459Z,10.64
2022-12-31T08:37:39.849Z,10.79
2022-12-31T08:40:30.506Z,10.53
2022-12-31T08:43:23.562Z,10.61
2022-12-31T08:45:53.213Z,10.43
2022-12-31T08:48:31.716Z,10.50
2022-12-31T08:50:58.691Z,10.61
2022-12-31T08:53:26.011Z,10.48
2022-12-31T08:55:59.503Z,10.50
2022-12-31T08:58:49.048Z,10.81
2022-12-31T09:01:22.172Z,10.93
2022-12-31T09:03:57.828Z,10.94
2022-12-31T09:06:36.076Z,11.15
2022-12-31T09:09:30.168Z,11.50
2022-12-31T09:12:24.714Z,11.59
2022-12-31T09:15:13.129Z,11.79
2022-12-31T09:17:39.624Z,11.86
2022-12-31T09:20:06.371Z,11.80
2022-12-31T09:22:33.070Z,11.81
2022-12-31T09:25:00.012Z,11.83
2022-12-31T09:27:37.857Z,11.87
2022-12-31T09:30:11.690Z,11.87
2022-12-31T09:33:12.512Z,12.14
2022-12-31T09:35:50.378Z,12.21
2022-12-31T09:38:20.526Z,12.36
2022-12-31T09:41:12.499Z,12.34
2022-12-31T09:44:26.603Z,12.25
2022-12-31T09:47:11.418Z,12.43
2022-12-31T09:50:08.569Z,12.52
2022-12-31T09:52:47.239Z,12.63
2022-12-31T09:55:48.420Z,12.50
2022-12-31T09:58:38.701Z,12.55
2022-12-31T10:01:31.090Z,12.53
2022-12-31T10:04:34.668Z,12.37
2022-12-31T10:07:13.313Z,12.54
2022-12-31T10:10:02.310Z,12.45
2022-12-31T10:12:50.181Z,12.58
2022-12-31T10:16:06.064Z,12.82
2022-12-31T10:19:00.164Z,12.81
2022-12-31T10:22:14.530Z,12.83
2022-12-31T10:24:56.957Z,12.87
2022-12-31T10:27:38.466Z,13.72
2022-12-31T10:30:18.492Z,13.43
2022-12-31T10:32:45.018Z,13.07
2022-12-31T10:35:19.539Z,13.25
2022-12-31T10:37:59.540Z,13.03
2022-12-31T10:41:04.641Z,13.18
2022-12-31T10:44:03.951Z,13.08
2022-12-31T10:46:54.808Z,13.28
2022-12-31T10:50:03.927Z,13.31
2022-12-31T10:53:01.049Z,13.21
2022-12-31T10:55:40.093Z,13.38
2022-12-31T10:58:44.423Z,13.21
2022-12-31T11:01:30.683Z,13.22
2022-12-31T11:04:24.645Z,13.30
2022-12-31T11:07:00.257Z,13.17
2022-12-31T11:09:51.403Z,13.34
2022-12-31T11:12:17.881Z,13.09
2022-12-31T11:14:50.913Z,13.06
2022-12-31T11:33:21.017Z,12.96
2022-12-31T11:36:05.715Z,13.19
2022-12-31T11:38:40.679Z,13.39
2022-12-31T11:41:39.624Z,13.43
2022-12-31T11:44:19.598Z,13.59
2022-12-31T11:47:04.591Z,13.49
2022-12-31T11:49:55.338Z,13.70
2022-12-31T11:52:39.661Z,13.52
2022-12-31T11:55:24.270Z,13.76
2022-12-31T11:57:51.928Z,13.99
2022-12-31T12:00:25.750Z,13.84
2022-12-31T12:03:02.392Z,13.68
2022-12-31T12:05:30.057Z,13.60
2022-12-31T12:07:57.134Z,13.67
2022-12-31T12:10:41.995Z,13.64
2022-12-31T12:13:13.641Z,13.60
2022-12-31T12:15:44.708Z,13.71
2022-12-31T12:18:24.524Z,13.51
2022-12-31T12:20:51.276Z,13.84
2022-12-31T12:23:24.789Z,13.69
2022-12-31T12:25:51.835Z,13.54
2022-12-31T12:28:18.338Z,13.57
2022-12-31T12:30:46.271Z,13.46
2022-12-31T12:33:18.332Z,13.55
2022-12-31T12:35:45.506Z,13.41
2022-12-31T12:38:21.388Z,13.61
2022-12-31T12:41:00.265Z,13.62
2022-12-31T12:43:30.135Z,13.43
2022-12-31T12:46:23.103Z,13.25
2022-12-31T12:48:56.039Z,13.55
2022-12-31T12:51:47.744Z,13.51
2022-12-31T12:54:32.534Z,13.53
2022-12-31T12:57:15.899Z,13.39
2022-12-31T13:00:04.616Z,13.63
2022-12-31T13:02:37.175Z,13.69
2022-12-31T13:05:21.673Z,13.54
2022-12-31T13:08:30.292Z,13.57
2022-12-31T13:11:26.573Z,13.53
2022-12-31T13:14:23.612Z,13.43
2022-12-31T13:16:55.368Z,13.30
2022-12-31T13:19:30.701Z,13.56
2022-12-31T13:22:12.562Z,13.65
2022-12-31T13:25:06.665Z,13.55
2022-12-31T13:27:43.882Z,13.28
2022-12-31T13:30:19.492Z,13.22
2022-12-31T13:33:01.217Z,13.30
2022-12-31T13:35:38.195Z,13.09
2022-12-31T13:38:28.449Z,13.08
2022-12-31T13:41:01.755Z,12.77
2022-12-31T13:43:47.315Z,12.57
2022-12-31T13:46:52.697Z,12.46
2022-12-31T13:49:25.116Z,12.41
2022-12-31T13:51:59.590Z,12.50
2022-12-31T13:54:38.421Z,12.38
2022-12-31T13:57:16.946Z,12.78
2022-12-31T13:59:48.573Z,12.73
2022-12-31T14:02:40.548Z,13.18
2022-12-31T14:05:19.967Z,12.92
2022-12-31T14:07:52.594Z,12.80
2022-12-31T14:10:27.723Z,12.99
2022-12-31T14:13:10.805Z,12.94
2022-12-31T14:16:15.965Z,13.05
2022-12-31T14:18:50.724Z,12.97
2022-12-31T14:21:23.747Z,12.80
2022-12-31T14:24:05.233Z,12.90
2022-12-31T14:26:36.057Z,12.65
2022-12-31T14:29:31.353Z,12.82
2022-12-31T14:32:19.602Z,12.78
2022-12-31T14:35:23.996Z,12.52
2022-12-31T14:37:59.380Z,12.58
2022-12-31T14:40:41.689Z,12.68
2022-12-31T14:43:38.233Z,12.24
2022-12-31T14:46:42.706Z,12.42
2022-12-31T14:49:18.209Z,11.97
2022-12-31T14:51:44.974Z,11.79
2022-12-31T14:54:28.969Z,11.75
2022-12-31T14:56:55.881Z,11.54
2022-12-31T14:59:28.298Z,11.41
2022-12-31T15:01:56.939Z,11.27
2022-12-31T15:04:32.726Z,11.30
2022-12-31T15:07:25.438Z,11.10
2022-12-31T15:10:44.700Z,10.92
2022-12-31T15:13:19.496Z,10.82
2022-12-31T15:16:11.598Z,10.59
2022-12-31T15:18:50.955Z,10.50
2022-12-31T15:21:44.937Z,10.49
2022-12-31T15:24:24.183Z,10.37
2022-12-31T15:27:32.350Z,10.33
2022-12-31T15:30:00.884Z,10.08
2022-12-31T15:32:42.612Z,10.09
2022-12-31T15:35:21.502Z,10.06
2022-12-31T15:38:19.274Z,10.02
2022-12-31T15:40:51.639Z,10.04
2022-12-31T15:43:24.343Z,10.06
2022-12-31T15:45:56.030Z,9.92
2022-12-31T15:48:31.211Z,9.90
2022-12-31T15:51:00.480Z,9.83
2022-12-31T15:53:32.230Z,9.71
2022-12-31T15:56:00.646Z,9.78
2022-12-31T15:58:31.627Z,9.80
2022-12-31T16:01:15.742Z,9.69
2022-12-31T16:03:46.330Z,9.63
2022-12-31T16:06:15.353Z,9.55
2022-12-31T16:08:47.041Z,9.56
2022-12-31T16:11:14.784Z,9.58
2022-12-31T16:13:45.697Z,9.47
2022-12-31T16:16:24.897Z,9.60
2022-12-31T16:18:53.079Z,9.54
2022-12-31T16:21:37.407Z,9.34
2022-12-31T16:24:06.010Z,9.38
2022-12-31T16:26:54.690Z,9.20
2022-12-31T16:29:23.982Z,9.05
2022-12-31T16:31:55.629Z,9.10
2022-12-31T16:34:27.875Z,9.05
2022-12-31T16:37:02.511Z,9.02
2022-12-31T16:39:34.179Z,8.95
2022-12-31T16:42:14.804Z,8.91
2022-12-31T16:44:41.985Z,8.96
2022-12-31T16:47:13.918Z,9.00
2022-12-31T16:49:41.598Z,8.81
2022-12-31T16:52:24.265Z,8.79
2022-12-31T16:54:51.310Z,8.69
2022-12-31T16:57:22.543Z,8.48
2022-12-31T16:59:54.575Z,8.60
2022-12-31T17:02:27.642Z,8.52
2022-12-31T17:04:56.438Z,8.60
2022-12-31T17:07:32.312Z,8.52
2022-12-31T17:10:24.448Z,8.51
2022-12-31T17:15:44.974Z,8.49
2022-12-31T17:18:19.387Z,8.45
2022-12-31T17:20:46.896Z,8.48
2022-12-31T17:23:31.809Z,8.28
2022-12-31T17:26:01.035Z,8.39
2022-12-31T17:28:37.669Z,8.29
2022-12-31T17:31:29.000Z,8.34
2022-12-31T17:34:13.179Z,8.29
2022-12-31T17:37:00.375Z,8.26
2022-12-31T17:39:39.449Z,8.27
2022-12-31T17:42:09.702Z,8.28
2022-12-31T17:44:39.403Z,8.28
2022-12-31T17:47:08.386Z,8.21
2022-12-31T17:49:36.559Z,8.21
2022-12-31T17:52:03.300Z,8.30
2022-12-31T17:54:29.868Z,8.24
2022-12-31T17:56:57.564Z,8.18
2022-12-31T17:59:25.695Z,8.16
2022-12-31T18:01:52.495Z,8.16
2022-12-31T18:04:20.756Z,8.12
2022-12-31T18:06:47.263Z,8.07
2022-12-31T18:09:14.237Z,8.06
2022-12-31T18:11:41.266Z,8.03
2022-12-31T18:14:08.228Z,8.01
2022-12-31T18:16:34.799Z,8.05
2022-12-31T18:19:01.582Z,7.83
2022-12-31T18:21:32.588Z,7.98
2022-12-31T18:26:27.986Z,7.95
2022-12-31T18:28:54.798Z,7.69
2022-12-31T18:31:24.675Z,7.93
2022-12-31T18:33:52.553Z,7.94
2022-12-31T18:36:21.441Z,7.86
2022-12-31T18:38:48.531Z,7.82
2022-12-31T18:41:21.424Z,7.80
2022-12-31T18:43:48.591Z,7.83
2022-12-31T18:46:18.183Z,7.73
2022-12-31T18:48:45.060Z,7.71
2022-12-31T18:51:17.028Z,7.83
2022-12-31T18:53:43.859Z,7.83
2022-12-31T18:56:13.276Z,7.81
2022-12-31T18:58:40.780Z,7.81
2022-12-31T19:01:31.703Z,7.69
2022-12-31T19:04:27.624Z,7.66
2022-12-31T19:06:56.007Z,7.58
2022-12-31T19:09:44.767Z,7.35
2022-12-31T19:12:14.303Z,7.55
2022-12-31T19:14:41.007Z,7.57
2022-12-31T19:19:34.650Z,7.49
2022-12-31T19:22:01.594Z,7.56
2022-12-31T19:24:28.521Z,7.58
2022-12-31T19:26:55.162Z,7.27
2022-12-31T19:29:27.305Z,7.56
2022-12-31T19:31:54.255Z,7.54
2022-12-31T19:34:21.150Z,7.49
2022-12-31T19:36:47.746Z,7.47
2022-12-31T19:39:17.417Z,7.49
2022-12-31T19:41:44.801Z,7.48
2022-12-31T19:44:16.503Z,7.38
2022-12-31T19:46:43.102Z,7.35
2022-12-31T19:49:13.916Z,7.32
2022-12-31T19:51:40.770Z,7.35
2022-12-31T19:54:07.712Z,7.24
2022-12-31T19:56:34.388Z,7.25
2022-12-31T19:59:09.415Z,7.27
2022-12-31T20:01:36.140Z,7.21
2022-12-31T20:04:02.780Z,7.12
2022-12-31T20:06:29.271Z,7.19
2022-12-31T20:08:55.927Z,7.17
2022-12-31T20:11:24.143Z,7.17
2022-12-31T20:13:52.386Z,7.16
2022-12-31T20:16:21.075Z,7.04
2022-12-31T20:18:48.027Z,6.95
2022-12-31T20:21:20.866Z,7.01
2022-12-31T20:23:48.997Z,7.00
2022-12-31T20:26:15.893Z,6.86
2022-12-31T20:28:42.501Z,6.88
2022-12-31T20:31:11.836Z,6.84
2022-12-31T20:33:38.447Z,6.84
2022-12-31T20:36:06.845Z,6.78
2022-12-31T20:38:33.725Z,7.00
2022-12-31T20:41:08.831Z,6.92
2022-12-31T20:43:36.136Z,6.84
2022-12-31T20:46:14.056Z,6.85
2022-12-31T20:48:41.437Z,6.65
2022-12-31T20:51:08.118Z,6.72
2022-12-31T20:53:34.603Z,6.62
2022-12-31T20:56:08.315Z,6.55
2022-12-31T20:58:35.005Z,6.55
2022-12-31T21:01:06.744Z,6.53
2022-12-31T21:06:22.932Z,6.63
2022-12-31T21:08:49.704Z,6.49
2022-12-31T21:11:35.071Z,6.52
2022-12-31T21:14:02.193Z,6.39
2022-12-31T21:16:28.826Z,6.52
2022-12-31T21:18:55.860Z,6.49
2022-12-31T21:21:22.511Z,6.52
2022-12-31T21:23:49.279Z,6.40
2022-12-31T21:26:15.810Z,6.53
2022-12-31T21:28:42.257Z,6.50
2022-12-31T21:31:11.589Z,6.33
2022-12-31T21:33:38.524Z,6.41
2022-12-31T21:36:05.319Z,6.39
2022-12-31T21:38:32.035Z,6.36
2022-12-31T21:41:03.528Z,6.39
2022-12-31T21:43:30.305Z,6.40
2022-12-31T21:46:07.343Z,6.36
2022-12-31T21:48:34.367Z,6.28
2022-12-31T21:51:09.733Z,6.32
2022-12-31T21:53:37.506Z,6.26
2022-12-31T21:56:16.120Z,6.31
2022-12-31T21:59:08.556Z,6.31
2022-12-31T22:01:53.920Z,6.29
2022-12-31T22:04:59.848Z,6.31
2022-12-31T22:07:07.161Z,6.35
2022-12-31T22:09:33.727Z,6.12
2022-12-31T22:12:00.188Z,6.34
2022-12-31T22:14:26.633Z,6.31
2022-12-31T22:16:53.172Z,6.28
2022-12-31T22:19:19.629Z,6.28
2022-12-31T22:21:46.246Z,6.22
2022-12-31T22:24:12.797Z,6.21
2022-12-31T22:26:44.554Z,6.23
2022-12-31T22:29:12.947Z,6.27
2022-12-31T22:31:39.498Z,6.26
2022-12-31T22:34:06.040Z,6.22
2022-12-31T22:36:32.590Z,6.23
2022-12-31T22:38:59.109Z,6.26
2022-12-31T22:41:26.708Z,6.24
2022-12-31T22:44:02.277Z,6.24
2022-12-31T22:46:30.065Z,6.17
2022-12-31T22:48:58.740Z,6.12
2022-12-31T22:51:54.985Z,6.06
2022-12-31T22:54:12.804Z,5.93
2022-12-31T22:56:39.377Z,5.99
2022-12-31T22:59:05.952Z,5.96
2022-12-31T23:18:21.454Z,5.51
2022-12-31T23:21:06.787Z,5.72
2022-12-31T23:23:33.292Z,5.80
2022-12-31T23:26:00.657Z,5.85
2022-12-31T23:28:27.273Z,5.88
2022-12-31T23:30:54.059Z,5.80
2022-12-31T23:33:24.002Z,5.85
2022-12-31T23:36:01.038Z,5.90
2022-12-31T23:38:27.420Z,5.89
2022-12-31T23:40:53.953Z,5.82
2022-12-31T23:43:21.608Z,5.86
2022-12-31T23:45:49.298Z,5.84
2022-12-31T23:48:15.765Z,5.81
2022-12-31T23:50:45.392Z,5.77
2022-12-31T23:53:15.779Z,5.70
2022-12-31T23:55:42.397Z,5.68
2022-12-31T23:58:08.959Z,5.76
